Time;durP1;ratioP1;P1;durP2;ratioP2;P2;SDS_P1;SDS_P2;PMS_P1;PMS_P2;Temp;Humidity;BMP_temperature;BMP_pressure;BME280_temperature;BME280_humidity;BME280_pressure;Samples;Min_cycle;Max_cycle;Signal;HPM_P1;HPM_P2
2024/01/04 00:07:17;;;;;;;;;;;9.30;99.90;;;;;;21042396;28;19939;-80
2024/01/04 00:17:18;;;;;;;;;;;9.30;99.90;;;;;;21064781;28;19951;-79
2024/01/04 00:27:19;;;;;;;;;;;9.20;99.90;;;;;;21066643;28;19920;-80
2024/01/04 00:37:19;;;;;;;;;;;9.20;99.90;;;;;;21062789;28;19916;-80
2024/01/04 00:47:20;;;;;;;;;;;9.20;99.90;;;;;;21042675;28;19912;-80
2024/01/04 00:57:20;;;;;;;;;;;9.40;99.90;;;;;;21071272;28;19942;-80
2024/01/04 01:07:21;;;;;;;;;;;9.40;99.90;;;;;;21062917;28;19913;-81
2024/01/04 01:17:22;;;;;;;;;;;9.40;99.90;;;;;;21067552;28;19939;-79
2024/01/04 01:27:22;;;;;;;;;;;9.50;99.90;;;;;;21049596;28;20386;-80
2024/01/04 01:37:23;;;;;;;;;;;9.40;99.90;;;;;;21045048;28;19952;-79
2024/01/04 01:47:24;;;;;;;;;;;9.40;99.90;;;;;;21048906;28;19920;-80
2024/01/04 01:57:27;;;;;;;;;;;9.20;99.90;;;;;;21053248;28;19916;-80
2024/01/04 02:07:28;;;;;;;;;;;9.30;99.90;;;;;;21049509;28;19920;-79
2024/01/04 02:17:29;;;;;;;;;;;9.40;99.90;;;;;;21064372;28;19986;-80
2024/01/04 02:27:30;;;;;;;;;;;9.40;99.90;;;;;;21064600;28;19919;-80
2024/01/04 02:37:30;;;;;;;;;;;9.30;99.90;;;;;;21056415;28;19916;-78
2024/01/04 02:47:31;;;;;;;;;;;9.00;99.90;;;;;;21065225;28;19908;-79
2024/01/04 02:57:32;;;;;;;;;;;9.00;99.90;;;;;;21059799;28;20367;-80
2024/01/04 03:07:32;;;;;;;;;;;9.20;99.90;;;;;;21070416;28;19913;-80
2024/01/04 03:17:33;;;;;;;;;;;9.10;99.90;;;;;;21063024;28;19916;-80
2024/01/04 03:27:33;;;;;;;;;;;8.90;99.90;;;;;;21054278;28;20295;-81
2024/01/04 03:37:34;;;;;;;;;;;7.60;99.90;;;;;;21055394;28;19916;-80
2024/01/04 03:47:35;;;;;;;;;;;7.50;99.90;;;;;;21051567;28;20395;-80
2024/01/04 03:57:35;;;;;;;;;;;7.80;99.90;;;;;;21063944;28;20307;-80
2024/01/04 04:07:36;;;;;;;;;;;7.90;99.90;;;;;;21042154;28;20007;-80
2024/01/04 04:17:37;;;;;;;;;;;7.90;99.90;;;;;;21052662;28;19917;-80
2024/01/04 04:27:38;;;;;;;;;;;7.80;99.90;;;;;;21064077;28;19912;-80
2024/01/04 04:37:38;;;;;;;;;;;7.90;99.90;;;;;;21033251;28;20335;-80
2024/01/04 04:47:39;;;;;;;;;;;7.80;99.90;;;;;;21066157;28;19912;-80
2024/01/04 04:57:41;;;;;;;;;;;7.90;99.90;;;;;;21071109;28;19916;-80
2024/01/04 05:07:41;;;;;;;;;;;7.90;99.90;;;;;;21056110;28;20379;-80
2024/01/04 05:17:42;;;;;;;;;;;8.00;99.90;;;;;;21056247;28;19920;-80
2024/01/04 05:27:42;;;;;;;;;;;8.00;99.90;;;;;;21041191;28;19939;-80
2024/01/04 05:37:43;;;;;;;;;;;8.20;99.90;;;;;;21069090;28;19923;-80
2024/01/04 05:47:44;;;;;;;;;;;8.40;99.90;;;;;;21071747;28;19968;-80
2024/01/04 05:57:44;;;;;;;;;;;8.50;99.90;;;;;;21061288;28;19920;-79
2024/01/04 06:07:45;;;;;;;;;;;8.50;99.90;;;;;;21031106;28;19994;-80
2024/01/04 06:17:46;;;;;;;;;;;8.50;99.90;;;;;;21097145;28;20086;-80
2024/01/04 06:27:47;;;;;;;;;;;8.50;99.90;;;;;;21073783;28;19916;-80
2024/01/04 06:37:47;;;;;;;;;;;8.50;99.90;;;;;;21068764;28;19928;-77
2024/01/04 06:47:48;;;;;;;;;;;8.40;99.90;;;;;;21083383;28;19958;-79
2024/01/04 06:57:49;;;;;;;;;;;8.40;99.90;;;;;;21076050;28;19922;-80
2024/01/04 07:07:49;;;;;;;;;;;8.40;99.90;;;;;;21022686;28;19923;-79
2024/01/04 07:17:51;;;;;;;;;;;8.50;99.90;;;;;;21019126;28;19952;-82
2024/01/04 07:27:52;;;;;;;;;;;8.60;99.90;;;;;;21006584;28;19917;-81
2024/01/04 07:37:53;;;;;;;;;;;8.60;99.90;;;;;;21015693;28;19921;-80
2024/01/04 07:47:54;;;;;;;;;;;8.60;99.90;;;;;;21003276;28;19919;-80
2024/01/04 07:57:54;;;;;;;;;;;8.60;99.90;;;;;;21058315;28;19916;-78
2024/01/04 08:07:55;;;;;;;;;;;8.60;99.90;;;;;;21022064;28;19912;-78
2024/01/04 08:17:56;;;;;;;;;;;8.40;99.90;;;;;;21027170;28;19948;-79
2024/01/04 08:27:58;;;;;;;;;;;8.00;99.90;;;;;;21045625;28;19930;-78
2024/01/04 08:38:00;;;;;;;;;;;7.60;99.90;;;;;;21001562;28;19983;-80
2024/01/04 08:48:01;;;;;;;;;;;7.70;99.90;;;;;;21050214;28;20337;-81
2024/01/04 08:58:02;;;;;;;;;;;8.00;99.90;;;;;;21027197;28;19923;-77
2024/01/04 09:08:05;;;;;;;;;;;8.30;99.90;;;;;;21042098;28;19919;-77
2024/01/04 09:18:06;;;;;;;;;;;8.50;99.90;;;;;;21048214;28;19966;-79
2024/01/04 09:28:07;;;;;;;;;;;8.60;99.90;;;;;;21051387;28;20011;-80
2024/01/04 09:38:07;;;;;;;;;;;7.90;99.90;;;;;;21071722;28;19922;-79
2024/01/04 09:48:10;;;;;;;;;;;7.50;99.90;;;;;;21061773;28;19912;-79
2024/01/04 09:58:11;;;;;;;;;;;7.30;99.90;;;;;;21055175;28;19921;-81
2024/01/04 10:08:19;;;;;;;;;;;7.20;99.90;;;;;;21060781;28;20251;-80
2024/01/04 10:18:19;;;;;;;;;;;7.10;99.90;;;;;;21059277;28;19917;-79
2024/01/04 10:28:20;;;;;;;;;;;7.10;99.90;;;;;;21058655;28;19913;-80
2024/01/04 10:38:21;;;;;;;;;;;7.10;99.90;;;;;;21052869;28;19924;-78
2024/01/04 10:48:22;;;;;;;;;;;7.30;99.90;;;;;;21039757;28;19912;-80
2024/01/04 10:58:23;;;;;;;;;;;7.40;99.90;;;;;;21046486;28;19916;-79
2024/01/04 11:08:25;;;;;;;;;;;7.70;99.90;;;;;;21045235;28;19912;-79
2024/01/04 11:18:40;;;;;;;;;;;7.90;99.90;;;;;;21054768;28;20011;-79
2024/01/04 11:28:40;;;;;;;;;;;8.00;99.90;;;;;;21049140;28;19916;-79
2024/01/04 11:38:44;;;;;;;;;;;8.10;99.90;;;;;;21039801;28;20342;-78
2024/01/04 11:48:59;;;;;;;;;;;7.90;99.90;;;;;;20998084;28;19920;-78
2024/01/04 11:59:08;;;;;;;;;;;8.30;99.90;;;;;;21000992;28;20280;-77
2024/01/04 12:09:10;;;;;;;;;;;9.00;99.90;;;;;;20998477;28;20335;-76
2024/01/04 12:19:11;;;;;;;;;;;9.40;99.90;;;;;;20997771;28;19927;-76
2024/01/04 12:29:13;;;;;;;;;;;9.30;99.90;;;;;;21040169;28;19936;-78
2024/01/04 12:39:15;;;;;;;;;;;9.00;99.90;;;;;;21002000;28;19916;-77
2024/01/04 12:49:18;;;;;;;;;;;9.00;99.90;;;;;;21003606;28;19940;-78
2024/01/04 12:59:20;;;;;;;;;;;8.90;99.90;;;;;;21017718;28;20421;-78
2024/01/04 13:09:22;;;;;;;;;;;8.80;99.90;;;;;;21006683;28;20368;-78
2024/01/04 13:19:23;;;;;;;;;;;9.10;99.90;;;;;;21037264;28;19916;-79
2024/01/04 13:29:27;;;;;;;;;;;9.40;99.90;;;;;;21028468;28;19919;-78
2024/01/04 13:39:28;;;;;;;;;;;8.70;99.90;;;;;;21017605;28;20280;-78
2024/01/04 13:49:28;;;;;;;;;;;9.30;99.90;;;;;;21033723;28;19948;-78
2024/01/04 13:59:32;;;;;;;;;;;9.30;99.90;;;;;;21015116;28;19916;-78
2024/01/04 14:09:33;;;;;;;;;;;9.70;99.90;;;;;;21007696;28;20287;-78
2024/01/04 14:19:34;;;;;;;;;;;9.50;99.90;;;;;;21012010;28;20011;-78
2024/01/04 14:29:35;;;;;;;;;;;9.60;99.90;;;;;;20995290;28;20434;-77
2024/01/04 14:39:39;;;;;;;;;;;10.00;99.90;;;;;;20999897;28;20400;-79
2024/01/04 14:49:41;;;;;;;;;;;9.60;99.90;;;;;;21016358;28;19966;-79
2024/01/04 14:59:42;;;;;;;;;;;9.80;99.90;;;;;;21003453;28;19917;-78
2024/01/04 15:09:43;;;;;;;;;;;10.00;99.90;;;;;;21002346;28;20020;-78
2024/01/04 15:19:43;;;;;;;;;;;9.80;99.90;;;;;;21001577;28;19948;-78
2024/01/04 15:29:44;;;;;;;;;;;8.90;99.90;;;;;;21004843;28;19913;-78
2024/01/04 15:39:45;;;;;;;;;;;8.50;99.90;;;;;;20999502;28;20371;-77
2024/01/04 15:49:45;;;;;;;;;;;8.30;99.90;;;;;;20997374;28;19919;-77
2024/01/04 15:59:46;;;;;;;;;;;8.00;99.90;;;;;;20998302;28;19917;-76
2024/01/04 16:09:47;;;;;;;;;;;7.70;99.90;;;;;;20984940;28;19920;-77
2024/01/04 16:19:48;;;;;;;;;;;7.60;99.90;;;;;;21000663;28;20013;-78
2024/01/04 16:29:49;;;;;;;;;;;7.60;99.90;;;;;;21028402;28;19912;-78
2024/01/04 16:39:50;;;;;;;;;;;7.10;99.90;;;;;;20996644;28;19916;-77
2024/01/04 16:49:50;;;;;;;;;;;6.60;99.90;;;;;;20994881;28;19942;-77
2024/01/04 16:59:52;;;;;;;;;;;6.30;99.90;;;;;;20992066;28;19962;-76
2024/01/04 17:09:53;;;;;;;;;;;6.20;99.90;;;;;;20993470;28;20287;-77
2024/01/04 17:19:54;;;;;;;;;;;5.90;99.90;;;;;;20975875;28;19971;-79
2024/01/04 17:29:54;;;;;;;;;;;5.80;99.90;;;;;;21001140;28;19912;-77
2024/01/04 17:39:55;;;;;;;;;;;5.50;99.90;;;;;;20991302;28;19959;-78
2024/01/04 17:49:56;;;;;;;;;;;5.50;99.90;;;;;;20994519;28;19934;-79
2024/01/04 17:59:57;;;;;;;;;;;5.30;99.90;;;;;;20996831;28;20375;-77
2024/01/04 18:09:58;;;;;;;;;;;5.00;99.90;;;;;;21002497;28;20590;-77
2024/01/04 18:19:58;;;;;;;;;;;4.80;99.90;;;;;;20994481;28;19959;-78
2024/01/04 18:29:59;;;;;;;;;;;4.90;99.90;;;;;;20992856;28;19912;-77
2024/01/04 18:40:00;;;;;;;;;;;4.70;99.90;;;;;;20988364;28;19924;-76
2024/01/04 18:50:00;;;;;;;;;;;4.50;99.90;;;;;;20987375;28;20003;-78
2024/01/04 19:00:01;;;;;;;;;;;4.40;99.90;;;;;;20969670;28;20376;-77
2024/01/04 19:10:02;;;;;;;;;;;4.80;99.90;;;;;;20987762;28;20007;-76
2024/01/04 19:20:09;;;;;;;;;;;4.90;99.90;;;;;;20988824;28;20011;-78
2024/01/04 19:30:10;;;;;;;;;;;4.90;99.90;;;;;;21006791;28;19916;-78
2024/01/04 19:40:11;;;;;;;;;;;4.80;99.90;;;;;;21010267;28;19923;-78
2024/01/04 19:50:12;;;;;;;;;;;4.70;99.90;;;;;;21003915;28;19935;-79
2024/01/04 20:00:14;;;;;;;;;;;4.90;99.90;;;;;;21022254;28;20371;-79
2024/01/04 20:10:15;;;;;;;;;;;4.90;99.90;;;;;;21014680;28;19916;-78
2024/01/04 20:20:16;;;;;;;;;;;4.90;99.90;;;;;;21015436;28;19923;-77
2024/01/04 20:30:16;;;;;;;;;;;4.80;99.90;;;;;;21016173;28;19928;-78
2024/01/04 20:40:17;;;;;;;;;;;4.70;99.90;;;;;;21002576;28;20011;-75
2024/01/04 20:50:18;;;;;;;;;;;4.50;99.90;;;;;;20999838;28;19916;-78
2024/01/04 21:00:18;;;;;;;;;;;4.50;99.90;;;;;;20998131;28;19936;-77
2024/01/04 21:10:19;;;;;;;;;;;4.20;99.90;;;;;;20993416;28;19920;-77
2024/01/04 21:20:20;;;;;;;;;;;4.20;99.90;;;;;;20992487;28;19916;-77
2024/01/04 21:30:20;;;;;;;;;;;4.10;99.90;;;;;;20989760;28;19913;-76
2024/01/04 21:40:21;;;;;;;;;;;4.30;99.90;;;;;;20989338;28;20426;-76
2024/01/04 21:50:22;;;;;;;;;;;4.30;99.90;;;;;;20990458;28;19920;-77
2024/01/04 22:00:22;;;;;;;;;;;4.20;99.90;;;;;;20988245;28;20301;-76
2024/01/04 22:10:23;;;;;;;;;;;4.10;99.90;;;;;;20988248;28;20295;-76
2024/01/04 22:20:23;;;;;;;;;;;4.00;99.90;;;;;;20988587;28;19959;-75
2024/01/04 22:30:24;;;;;;;;;;;4.00;99.90;;;;;;20987852;28;19913;-76
2024/01/04 22:40:25;;;;;;;;;;;3.90;99.90;;;;;;20969029;28;20271;-76
2024/01/04 22:50:25;;;;;;;;;;;3.90;99.90;;;;;;20988700;28;19919;-76
2024/01/04 23:00:26;;;;;;;;;;;3.90;99.90;;;;;;20993662;28;19917;-77
2024/01/04 23:10:27;;;;;;;;;;;3.90;99.90;;;;;;21000792;28;20378;-76
2024/01/04 23:20:27;;;;;;;;;;;3.80;99.90;;;;;;21000824;28;19917;-76
2024/01/04 23:30:32;;;;;;;;;;;3.60;99.90;;;;;;21000210;28;19919;-75
2024/01/04 23:40:33;;;;;;;;;;;3.70;99.90;;;;;;20999121;28;20451;-77
2024/01/04 23:50:34;;;;;;;;;;;3.70;99.90;;;;;;21017611;28;19983;-77
